Roseburg, OR

11:29 AM PDT on October 21, 2014 (GMT -0700)
Hucrest | Change Station
CLOSE
Current Station
Personal Weather Station
Location: Roseburg, OR
Elevation: 425 ft
Nearby Weather Stations

Elev 425 ft 43.22 °N, 123.38 °W | Updated 4 minutes ago

Overcast
Overcast
61.0 °F
Feels Like 61.0 °F
N
5.0
Wind Variable Wind from South
Gusts 8.0 mph

Today
High -- | Low -- °F
--% Chance of Precip.
Yesterday
High -- | Low -- °F
Precip. -- in
7:34 AM 6:20 PM
Waning Crescent, 5% visible
Pressure 30.04 in
Visibility 10.0 miles
Clouds Scattered Clouds 4100 ft
Mostly Cloudy 5500 ft
Overcast 8000 ft
Dew Point 47 °F
Humidity 60%
Rainfall 0.00 in
Snow Depth Not available.
UV 1 out of 12
Pollen .10 out of 12
Air Quality Not available.
Flu Activity Sporadic
METAR KOTH 211815Z 15007KT 10SM SCT041 BKN055 OVC080 15/14 A3004 RMK AO1

More Conditions Fewer Conditions

Pressure 30.04 in
Visibility 10.0 miles
Clouds Scattered Clouds 4100 ft
Mostly Cloudy 5500 ft
Overcast 8000 ft
Dew Point 47 °F
Humidity 60%
Rainfall 0.00 in
Snow Depth Not available.
UV 1 out of 12
Pollen .10 out of 12
Air Quality Not available.
Flu Activity Sporadic
METAR KOTH 211815Z 15007KT 10SM SCT041 BKN055 OVC080 15/14 A3004 RMK AO1

More Conditions Fewer Conditions

10-Day Weather Forecast

Almanac

Astronomy

Oct. 21, 2014 Rise Set
Actual Time 7:34 AM PDT 6:20 PM PDT
Civil Twilight 7:05 AM PDT 6:49 PM PDT
Nautical Twilight 6:32 AM PDT 7:22 PM PDT
Astronomical Twilight 5:59 AM PDT 7:55 PM PDT
Moon 5:20 AM PDT 5:20 PM PDT
Length of Visible Light 11h 44m
Length of Day
10h 46m
Tomorrow will be 2m 47s shorter.
Waning Crescent, 5% of the Moon is Illuminated
Today
Waning Crescent
Oct 23
New
Oct 30
First Quarter
Nov 6
Full
Nov 14
Last Quarter

Today's Extremes

State Highs State Lows

Community

WunderPhotos

Upload Photos

1,763,738 photos uploaded!

Nearby

Snow Depth

Station Depth Elevation
Holland Meadows 0 in 4900 ft
Diamond Lake 0 in 5315 ft
Annie Springs 0 in 6020 ft
Salt Creek Falls 0 in 4000 ft
Cascade Summit 0 in 4880 ft

Earthquake Activity

City Distance Mag. Time & Date
Crescent City, California 134 miles 2.6 1:22 AM PDT
2014-10-21
Minimum magnitude displayed is 2.5.

Coastal Water Temperatures

Place Temperature
No Stations Reporting

Nearby Weather Stations